createdAt,value
2022-08-07T00:02:36.988Z,44.92
2022-08-07T00:04:55.964Z,43.15
2022-08-07T00:07:27.270Z,42.87
2022-08-07T00:10:19.106Z,42.87
2022-08-07T00:12:27.013Z,43.65
2022-08-07T00:14:56.314Z,43.19
2022-08-07T00:17:26.222Z,44.59
2022-08-07T00:20:01.461Z,44.49
2022-08-07T00:22:35.315Z,45.43
2022-08-07T00:24:57.816Z,45.43
2022-08-07T00:27:28.784Z,43.85
2022-08-07T00:29:59.307Z,44.05
2022-08-07T00:32:28.672Z,44.05
2022-08-07T00:34:57.887Z,44.17
2022-08-07T00:37:29.412Z,45.21
2022-08-07T00:39:57.973Z,44.87
2022-08-07T00:42:29.283Z,44.87
2022-08-07T00:44:58.589Z,44.72
2022-08-07T00:48:07.777Z,44.72
2022-08-07T00:50:20.315Z,44.14
2022-08-07T00:52:29.856Z,44.47
2022-08-07T00:55:04.687Z,44.36
2022-08-07T00:57:34.151Z,42.33
2022-08-07T01:00:04.181Z,43.87
2022-08-07T01:02:34.676Z,42.77
2022-08-07T01:05:19.059Z,42.18
2022-08-07T01:07:38.143Z,42.18
2022-08-07T01:10:11.037Z,43.05
2022-08-07T01:12:53.526Z,43.02
2022-08-07T01:15:16.863Z,43.02
2022-08-07T01:17:44.151Z,43.88
2022-08-07T01:20:17.465Z,44.07
2022-08-07T01:23:00.766Z,42.52
2022-08-07T01:25:54.613Z,42.56
2022-08-07T01:27:51.597Z,41.85
2022-08-07T01:30:21.642Z,41.56
2022-08-07T01:32:52.753Z,41.56
2022-08-07T01:35:24.437Z,42.80
2022-08-07T01:37:53.910Z,42.80
2022-08-07T01:40:24.475Z,41.94
2022-08-07T01:42:58.630Z,42.65
2022-08-07T01:45:36.923Z,43.98
2022-08-07T01:48:18.623Z,43.42
2022-08-07T01:50:29.357Z,43.01
2022-08-07T01:53:01.494Z,43.15
2022-08-07T01:55:35.087Z,43.89
2022-08-07T01:58:27.340Z,43.63
2022-08-07T02:00:49.064Z,44.20
2022-08-07T02:03:21.267Z,43.50
2022-08-07T02:05:59.868Z,42.54
2022-08-07T02:08:23.839Z,42.54
2022-08-07T02:10:58.176Z,41.96
2022-08-07T02:13:57.163Z,41.96
2022-08-07T02:16:03.801Z,42.67
2022-08-07T02:18:37.734Z,42.79
2022-08-07T02:21:16.177Z,42.37
2022-08-07T02:23:42.935Z,42.71
2022-08-07T02:26:32.522Z,42.48
2022-08-07T02:28:46.736Z,43.10
2022-08-07T02:31:28.220Z,43.10
2022-08-07T02:34:03.873Z,42.63
2022-08-07T02:36:28.340Z,43.69
2022-08-07T02:38:56.811Z,42.65
2022-08-07T02:41:33.424Z,42.65
2022-08-07T02:43:59.892Z,42.95
2022-08-07T02:46:31.499Z,43.33
2022-08-07T02:49:03.303Z,43.96
2022-08-07T02:51:49.932Z,43.96
2022-08-07T02:54:08.561Z,44.34
2022-08-07T02:56:40.796Z,44.38
2022-08-07T02:59:12.502Z,44.35
2022-08-07T03:01:47.081Z,44.35
2022-08-07T03:04:17.516Z,44.31
2022-08-07T03:06:48.800Z,46.09
2022-08-07T03:09:42.232Z,46.09
2022-08-07T03:11:58.022Z,47.10
2022-08-07T03:14:23.353Z,46.93
2022-08-07T03:16:54.376Z,47.58
2022-08-07T03:19:24.064Z,47.58
2022-08-07T03:21:56.127Z,47.21
2022-08-07T03:24:27.226Z,46.80
2022-08-07T03:26:59.551Z,47.83
2022-08-07T03:29:37.446Z,47.83
2022-08-07T03:32:12.780Z,47.38
2022-08-07T03:34:47.260Z,47.38
2022-08-07T03:37:14.168Z,46.80
2022-08-07T03:40:13.433Z,47.50
2022-08-07T03:42:17.269Z,47.19
2022-08-07T03:44:53.346Z,48.15
2022-08-07T03:47:19.169Z,48.15
2022-08-07T03:49:52.507Z,47.80
2022-08-07T03:52:22.858Z,48.55
2022-08-07T03:54:54.975Z,48.55
2022-08-07T03:58:35.251Z,49.87
2022-08-07T04:00:01.544Z,49.99
2022-08-07T04:02:28.551Z,50.68
2022-08-07T04:04:57.886Z,50.68
2022-08-07T04:07:36.166Z,50.81
2022-08-07T04:09:59.282Z,50.81
2022-08-07T04:12:31.827Z,51.25
2022-08-07T04:15:05.048Z,50.50
2022-08-07T04:18:57.335Z,51.39
2022-08-07T04:20:06.828Z,51.39
2022-08-07T04:22:35.889Z,50.44
2022-08-07T04:25:11.857Z,50.44
2022-08-07T04:27:44.110Z,50.41
2022-08-07T04:30:21.229Z,49.70
2022-08-07T04:32:44.970Z,49.70
2022-08-07T04:35:12.840Z,50.93
2022-08-07T04:38:02.925Z,50.76
2022-08-07T04:40:14.046Z,51.12
2022-08-07T04:42:43.664Z,51.12
2022-08-07T04:45:14.167Z,51.22
2022-08-07T04:47:56.947Z,50.80
2022-08-07T04:50:35.168Z,50.55
2022-08-07T04:53:09.156Z,50.94
2022-08-07T04:58:16.378Z,50.94
2022-08-07T04:59:07.704Z,51.12
2022-08-07T05:01:18.069Z,51.42
2022-08-07T05:04:06.665Z,52.22
2022-08-07T05:06:28.267Z,52.32
2022-08-07T05:09:06.150Z,52.30
2022-08-07T05:11:58.349Z,52.30
2022-08-07T05:14:55.449Z,51.77
2022-08-07T05:16:52.993Z,51.66
2022-08-07T05:19:32.689Z,49.41
2022-08-07T05:21:59.319Z,49.88
2022-08-07T05:24:39.465Z,51.06
2022-08-07T05:27:04.089Z,52.81
2022-08-07T05:29:48.048Z,52.81
2022-08-07T05:32:12.770Z,50.95
2022-08-07T05:34:43.118Z,51.35
2022-08-07T05:37:14.598Z,53.02
2022-08-07T05:40:16.569Z,53.02
2022-08-07T05:42:33.304Z,53.11
2022-08-07T05:45:04.499Z,53.11
2022-08-07T05:48:00.028Z,52.95
2022-08-07T05:49:53.300Z,52.95
2022-08-07T05:52:29.852Z,55.53
2022-08-07T05:54:55.994Z,55.53
2022-08-07T05:57:30.216Z,54.55
2022-08-07T06:00:01.249Z,55.98
2022-08-07T06:02:33.121Z,55.75
2022-08-07T06:05:05.071Z,55.75
2022-08-07T06:08:29.144Z,53.99
2022-08-07T06:10:11.313Z,55.24
2022-08-07T06:12:40.358Z,55.24
2022-08-07T06:15:15.275Z,56.34
2022-08-07T06:17:50.611Z,56.34
2022-08-07T06:20:32.024Z,54.46
2022-08-07T06:22:50.566Z,55.15
2022-08-07T06:25:20.646Z,54.68
2022-08-07T06:28:01.326Z,53.09
2022-08-07T06:30:24.366Z,53.09
2022-08-07T06:32:53.072Z,55.28
2022-08-07T06:35:22.210Z,52.66
2022-08-07T06:37:52.910Z,54.59
2022-08-07T06:40:22.807Z,54.59
2022-08-07T06:42:54.806Z,53.59
2022-08-07T06:45:25.338Z,56.53
2022-08-07T06:47:59.033Z,56.53
2022-08-07T06:50:25.602Z,54.60
2022-08-07T06:52:56.679Z,56.53
2022-08-07T06:55:47.874Z,55.69
2022-08-07T06:58:05.656Z,55.50
2022-08-07T07:00:39.746Z,55.50
2022-08-07T07:03:14.342Z,58.35
2022-08-07T07:06:04.188Z,57.47
2022-08-07T07:08:18.819Z,57.47
2022-08-07T07:10:54.723Z,56.48
2022-08-07T07:13:55.743Z,57.46
2022-08-07T07:15:56.490Z,57.46
2022-08-07T07:18:48.305Z,55.25
2022-08-07T07:22:04.328Z,56.51
2022-08-07T07:24:09.555Z,57.27
2022-08-07T07:26:37.145Z,56.76
2022-08-07T07:29:40.151Z,58.86
2022-08-07T07:31:44.490Z,58.86
2022-08-07T07:34:16.453Z,58.58
2022-08-07T07:36:53.803Z,59.09
2022-08-07T07:39:20.912Z,56.18
2022-08-07T07:42:13.470Z,55.82
2022-08-07T07:44:26.856Z,55.82
2022-08-07T07:47:12.074Z,56.34
2022-08-07T07:50:33.100Z,56.07
2022-08-07T07:52:04.092Z,56.82
2022-08-07T07:54:36.393Z,57.51
2022-08-07T07:57:06.749Z,57.51
2022-08-07T07:59:51.577Z,56.51
2022-08-07T08:02:10.975Z,59.39
2022-08-07T08:04:44.524Z,58.84
2022-08-07T08:07:20.131Z,56.94
2022-08-07T08:09:52.358Z,56.94
2022-08-07T08:12:51.111Z,58.95
2022-08-07T08:14:52.552Z,58.59
2022-08-07T08:17:57.607Z,59.52
2022-08-07T08:20:17.643Z,59.55
2022-08-07T08:22:56.089Z,59.55
2022-08-07T08:25:42.836Z,58.62
2022-08-07T08:28:10.169Z,56.68
2022-08-07T08:30:50.805Z,56.68
2022-08-07T08:33:15.303Z,57.88
2022-08-07T08:35:50.782Z,58.87
2022-08-07T08:38:22.007Z,58.89
2022-08-07T08:40:55.922Z,58.12
2022-08-07T08:43:42.901Z,57.59
2022-08-07T08:46:11.599Z,57.59
2022-08-07T08:48:58.821Z,58.42
2022-08-07T08:52:13.923Z,58.51
2022-08-07T08:54:25.887Z,58.51
2022-08-07T08:56:57.637Z,59.34
2022-08-07T08:59:51.011Z,58.25
2022-08-07T09:02:38.000Z,58.04
2022-08-07T09:05:32.106Z,56.66
2022-08-07T09:08:06.868Z,57.63
2022-08-07T09:11:00.407Z,58.18
2022-08-07T09:13:58.109Z,58.18
2022-08-07T09:16:47.527Z,56.80
2022-08-07T09:19:51.441Z,57.46
2022-08-07T09:22:23.021Z,56.92
2022-08-07T09:24:55.560Z,56.92
2022-08-07T09:27:59.641Z,57.54
2022-08-07T09:30:17.511Z,56.40
2022-08-07T09:32:57.137Z,56.34
2022-08-07T09:36:04.300Z,56.72
2022-08-07T09:38:11.146Z,57.08
2022-08-07T09:40:50.193Z,57.08
2022-08-07T09:44:05.660Z,56.69
2022-08-07T09:47:52.544Z,55.14
2022-08-07T09:50:01.222Z,55.93
2022-08-07T09:52:35.299Z,55.93
2022-08-07T09:55:17.321Z,57.17
2022-08-07T09:57:58.902Z,56.93
2022-08-07T10:00:31.959Z,56.19
2022-08-07T10:03:08.125Z,55.41
2022-08-07T10:06:17.584Z,56.92
2022-08-07T10:08:55.831Z,56.92
2022-08-07T10:12:01.331Z,56.13
2022-08-07T10:14:23.116Z,56.13
2022-08-07T10:17:17.457Z,56.21
2022-08-07T10:20:01.497Z,56.08
2022-08-07T10:22:50.846Z,52.62
2022-08-07T10:25:42.489Z,53.54
2022-08-07T10:28:20.615Z,53.54
2022-08-07T10:31:11.252Z,53.29
2022-08-07T10:34:17.985Z,53.31
2022-08-07T10:36:51.849Z,53.29
2022-08-07T10:39:42.198Z,53.15
2022-08-07T10:42:31.316Z,52.62
2022-08-07T10:45:05.980Z,53.29
2022-08-07T10:47:53.773Z,53.29
2022-08-07T10:50:40.111Z,52.24
2022-08-07T10:53:44.059Z,53.34
2022-08-07T10:56:21.044Z,53.34
2022-08-07T10:58:59.381Z,51.55
2022-08-07T11:01:35.356Z,52.30
2022-08-07T11:04:16.744Z,52.30
2022-08-07T11:06:50.970Z,52.75
2022-08-07T11:10:09.341Z,51.62
2022-08-07T11:12:32.094Z,52.18
2022-08-07T11:15:00.457Z,52.18
2022-08-07T11:17:45.176Z,52.09
2022-08-07T11:20:11.234Z,51.83
2022-08-07T11:22:49.874Z,53.26
2022-08-07T11:25:30.594Z,51.60
2022-08-07T11:28:15.329Z,51.60
2022-08-07T11:31:03.189Z,51.59
2022-08-07T11:33:59.231Z,52.64
2022-08-07T11:36:45.302Z,51.69
2022-08-07T11:39:20.587Z,51.32
2022-08-07T11:42:03.028Z,52.80
2022-08-07T11:44:37.865Z,52.70
2022-08-07T11:47:39.067Z,52.86
2022-08-07T11:50:32.827Z,52.86
2022-08-07T11:53:17.765Z,52.82
2022-08-07T11:56:15.641Z,53.14
2022-08-07T11:58:58.793Z,51.13
2022-08-07T12:01:59.355Z,51.13
2022-08-07T12:04:25.331Z,51.43
2022-08-07T12:07:09.066Z,52.66
2022-08-07T12:09:46.145Z,51.25
2022-08-07T12:12:30.646Z,51.91
2022-08-07T12:15:17.346Z,51.91
2022-08-07T12:17:59.739Z,50.49
2022-08-07T12:20:32.280Z,53.61
2022-08-07T12:24:05.687Z,53.61
2022-08-07T12:26:22.651Z,52.44
2022-08-07T12:28:59.163Z,52.53
2022-08-07T12:31:52.972Z,52.53
2022-08-07T12:34:22.771Z,51.96
2022-08-07T12:36:54.847Z,53.25
2022-08-07T12:39:42.602Z,52.30
2022-08-07T12:42:00.369Z,52.30
2022-08-07T12:44:32.494Z,51.97
2022-08-07T12:47:08.980Z,51.45
2022-08-07T12:50:04.983Z,53.02
2022-08-07T12:52:52.347Z,53.02
2022-08-07T12:55:40.779Z,51.12
2022-08-07T12:58:01.118Z,51.92
2022-08-07T13:00:35.918Z,51.92
2022-08-07T13:03:27.009Z,51.01
2022-08-07T13:06:21.813Z,51.01
2022-08-07T13:10:22.028Z,51.32
2022-08-07T13:12:01.867Z,51.32
2022-08-07T13:14:51.375Z,52.67
2022-08-07T13:17:40.102Z,51.97
2022-08-07T13:20:04.727Z,51.97
2022-08-07T13:22:37.270Z,51.77
2022-08-07T13:25:34.612Z,50.10
2022-08-07T13:28:24.116Z,51.26
2022-08-07T13:31:02.143Z,52.72
2022-08-07T13:34:30.402Z,52.72
2022-08-07T13:36:17.667Z,51.99
2022-08-07T13:38:50.703Z,51.24
2022-08-07T13:41:41.686Z,50.72
2022-08-07T13:44:10.619Z,51.74
2022-08-07T13:46:49.282Z,52.02
2022-08-07T13:50:34.506Z,51.58
2022-08-07T13:52:04.461Z,51.58
2022-08-07T13:54:22.598Z,51.62
2022-08-07T13:56:59.633Z,51.62
2022-08-07T13:59:31.074Z,51.19
2022-08-07T14:02:13.497Z,50.86
2022-08-07T14:04:54.392Z,51.75
2022-08-07T14:07:28.254Z,51.95
2022-08-07T14:10:17.844Z,51.95
2022-08-07T14:12:56.169Z,50.93
2022-08-07T14:15:37.122Z,50.93
2022-08-07T14:18:24.531Z,52.81
2022-08-07T14:20:49.127Z,52.12
2022-08-07T14:23:58.965Z,52.48
2022-08-07T14:26:09.067Z,52.04
2022-08-07T14:28:59.076Z,51.15
2022-08-07T14:31:16.561Z,51.68
2022-08-07T14:33:47.706Z,51.00
2022-08-07T14:36:17.190Z,50.00
2022-08-07T14:38:50.449Z,50.00
2022-08-07T14:41:34.041Z,51.28
2022-08-07T14:44:15.679Z,51.34
2022-08-07T14:46:56.630Z,52.00
2022-08-07T14:49:55.915Z,52.00
2022-08-07T14:52:04.553Z,51.00
2022-08-07T14:54:33.033Z,51.00
2022-08-07T14:56:53.198Z,51.36
2022-08-07T15:00:05.780Z,51.70
2022-08-07T15:01:58.684Z,51.70
2022-08-07T15:04:28.875Z,50.73
2022-08-07T15:07:00.921Z,52.55
2022-08-07T15:09:59.325Z,51.04
2022-08-07T15:12:07.266Z,51.04
2022-08-07T15:14:55.738Z,51.56
2022-08-07T15:17:19.273Z,51.56
2022-08-07T15:22:33.628Z,52.29
2022-08-07T15:25:17.916Z,52.14
2022-08-07T15:27:37.414Z,51.57
2022-08-07T15:33:01.648Z,50.88
2022-08-07T15:36:00.760Z,50.88
2022-08-07T15:40:35.387Z,51.47
2022-08-07T15:43:22.594Z,51.51
2022-08-07T15:46:00.073Z,51.51
2022-08-07T15:48:32.441Z,51.06
2022-08-07T15:53:52.138Z,51.28
2022-08-07T15:56:17.341Z,51.23
2022-08-07T15:58:52.270Z,51.23
2022-08-07T16:01:41.460Z,51.22
2022-08-07T16:04:15.492Z,51.94
2022-08-07T16:06:56.629Z,51.94
2022-08-07T16:09:54.600Z,51.48
2022-08-07T16:12:38.939Z,50.83
2022-08-07T16:15:09.907Z,50.80
2022-08-07T16:18:08.339Z,52.14
2022-08-07T16:22:01.303Z,51.38
2022-08-07T16:24:33.694Z,51.38
2022-08-07T16:27:19.810Z,51.51
2022-08-07T16:30:11.592Z,51.51
2022-08-07T16:32:53.915Z,52.32
2022-08-07T16:35:59.445Z,50.64
2022-08-07T16:38:29.601Z,50.05
2022-08-07T16:41:12.980Z,50.05
2022-08-07T16:44:02.520Z,51.70
2022-08-07T16:47:06.424Z,51.87
2022-08-07T16:50:28.272Z,51.87
2022-08-07T16:52:51.552Z,51.38
2022-08-07T16:55:08.505Z,51.38
2022-08-07T16:58:01.788Z,51.26
2022-08-07T17:00:29.918Z,51.35
2022-08-07T17:03:04.837Z,51.31
2022-08-07T17:06:30.215Z,50.97
2022-08-07T17:09:10.409Z,50.97
2022-08-07T17:12:05.332Z,48.38
2022-08-07T17:14:19.627Z,48.90
2022-08-07T17:16:55.932Z,50.12
2022-08-07T17:20:02.055Z,48.44
2022-08-07T17:22:19.167Z,48.44
2022-08-07T17:25:01.880Z,49.46
2022-08-07T17:27:34.739Z,50.75
2022-08-07T17:30:16.083Z,51.24
2022-08-07T17:33:04.921Z,49.87
2022-08-07T17:35:55.231Z,49.87
2022-08-07T17:38:44.416Z,50.83
2022-08-07T17:42:03.845Z,50.83
2022-08-07T17:44:08.276Z,49.63
2022-08-07T17:46:35.578Z,49.81
2022-08-07T17:49:24.265Z,49.99
2022-08-07T17:52:14.529Z,49.90
2022-08-07T17:54:55.234Z,49.90
2022-08-07T17:57:58.232Z,50.74
2022-08-07T18:00:34.413Z,50.33
2022-08-07T18:04:04.529Z,50.47
2022-08-07T18:06:16.566Z,50.54
2022-08-07T18:09:01.004Z,50.17
2022-08-07T18:12:16.287Z,50.55
2022-08-07T18:14:31.611Z,50.55
2022-08-07T18:17:10.706Z,49.46
2022-08-07T18:21:02.611Z,49.46
2022-08-07T18:22:40.475Z,47.85
2022-08-07T18:25:19.472Z,47.97
2022-08-07T18:28:34.078Z,47.61
2022-08-07T18:31:07.989Z,47.61
2022-08-07T18:34:00.009Z,48.98
2022-08-07T18:36:37.932Z,47.77
2022-08-07T18:40:07.086Z,48.07
2022-08-07T18:41:57.909Z,48.43
2022-08-07T18:45:44.468Z,49.10
2022-08-07T18:47:44.676Z,49.10
2022-08-07T18:50:45.467Z,48.39
2022-08-07T18:53:18.982Z,48.74
2022-08-07T18:56:18.521Z,48.74
2022-08-07T18:58:59.298Z,48.88
2022-08-07T19:02:33.031Z,48.88
2022-08-07T19:04:59.508Z,49.04
2022-08-07T19:07:35.202Z,47.99
2022-08-07T19:10:04.757Z,47.31
2022-08-07T19:12:48.597Z,48.03
2022-08-07T19:16:04.666Z,47.55
2022-08-07T19:18:34.277Z,47.81
2022-08-07T19:21:09.095Z,47.81
2022-08-07T19:23:58.040Z,46.64
2022-08-07T19:26:25.250Z,46.60
2022-08-07T19:30:55.781Z,46.60
2022-08-07T19:31:58.654Z,46.86
2022-08-07T19:34:05.841Z,46.94
2022-08-07T19:36:43.362Z,47.10
2022-08-07T19:39:17.189Z,47.10
2022-08-07T19:42:08.356Z,46.93
2022-08-07T19:44:31.357Z,46.09
2022-08-07T19:47:06.310Z,45.54
2022-08-07T19:49:56.352Z,45.54
2022-08-07T19:52:09.989Z,45.52
2022-08-07T19:54:55.882Z,45.96
2022-08-07T19:58:02.555Z,45.48
2022-08-07T19:59:58.530Z,43.45
2022-08-07T20:02:39.202Z,43.45
2022-08-07T20:05:10.979Z,43.59
2022-08-07T20:07:47.271Z,43.32
2022-08-07T20:10:36.394Z,45.47
2022-08-07T20:12:49.167Z,45.64
2022-08-07T20:15:22.430Z,45.46
2022-08-07T20:18:01.376Z,45.46
2022-08-07T20:20:26.417Z,45.27
2022-08-07T20:22:59.583Z,45.27
2022-08-07T20:25:40.448Z,46.41
2022-08-07T20:28:07.736Z,45.70
2022-08-07T20:30:40.016Z,44.97
2022-08-07T20:33:36.924Z,44.97
2022-08-07T20:35:54.586Z,45.36
2022-08-07T20:38:21.255Z,45.86
2022-08-07T20:40:53.303Z,45.25
2022-08-07T20:43:25.959Z,45.09
2022-08-07T20:46:28.203Z,45.09
2022-08-07T20:48:33.968Z,46.35
2022-08-07T20:51:09.758Z,44.58
2022-08-07T20:54:03.534Z,44.58
2022-08-07T20:56:10.927Z,45.29
2022-08-07T20:58:43.601Z,45.29
2022-08-07T21:01:19.412Z,43.78
2022-08-07T21:04:18.704Z,43.64
2022-08-07T21:06:28.403Z,43.64
2022-08-07T21:09:14.310Z,42.92
2022-08-07T21:11:50.132Z,44.40
2022-08-07T21:14:34.177Z,43.96
2022-08-07T21:18:00.590Z,45.18
2022-08-07T21:19:51.574Z,44.11
2022-08-07T21:22:11.253Z,44.27
2022-08-07T21:25:13.076Z,42.37
2022-08-07T21:28:02.633Z,43.31
2022-08-07T21:30:49.791Z,43.31
2022-08-07T21:33:41.346Z,43.35
2022-08-07T21:36:12.010Z,43.61
2022-08-07T21:38:54.853Z,43.61
2022-08-07T21:41:27.670Z,42.91
2022-08-07T21:44:14.686Z,42.92
2022-08-07T21:46:50.528Z,42.92
2022-08-07T21:49:30.258Z,43.48
2022-08-07T21:52:16.488Z,43.47
2022-08-07T21:54:54.655Z,43.47
2022-08-07T21:57:51.709Z,43.59
2022-08-07T22:00:22.649Z,43.31
2022-08-07T22:03:17.418Z,43.31
2022-08-07T22:05:55.567Z,43.65
2022-08-07T22:08:27.706Z,43.53
2022-08-07T22:11:00.303Z,42.52
2022-08-07T22:13:50.906Z,42.52
2022-08-07T22:16:38.553Z,43.39
2022-08-07T22:19:17.872Z,43.39
2022-08-07T22:22:04.297Z,43.47
2022-08-07T22:24:43.517Z,43.15
2022-08-07T22:27:34.135Z,44.48
2022-08-07T22:30:04.337Z,43.25
2022-08-07T22:32:43.910Z,42.94
2022-08-07T22:35:13.675Z,42.44
2022-08-07T22:38:06.750Z,43.92
2022-08-07T22:41:07.737Z,43.92
2022-08-07T22:43:40.562Z,42.52
2022-08-07T22:46:56.032Z,42.52
2022-08-07T22:49:19.924Z,42.68
2022-08-07T22:51:54.638Z,42.48
2022-08-07T22:54:48.811Z,43.51
2022-08-07T22:57:32.570Z,43.51
2022-08-07T23:00:07.285Z,42.68
2022-08-07T23:02:40.121Z,42.99
2022-08-07T23:06:08.220Z,42.81
2022-08-07T23:08:22.264Z,42.79
2022-08-07T23:11:10.292Z,42.73
2022-08-07T23:14:15.441Z,42.73
2022-08-07T23:16:55.281Z,43.99
2022-08-07T23:20:00.121Z,43.25
2022-08-07T23:22:34.267Z,43.41
2022-08-07T23:25:32.053Z,43.38
2022-08-07T23:28:31.451Z,43.35
2022-08-07T23:32:49.678Z,43.36
2022-08-07T23:34:37.932Z,43.36
2022-08-07T23:37:31.501Z,42.27
2022-08-07T23:40:20.379Z,42.03
2022-08-07T23:42:56.735Z,40.97
2022-08-07T23:46:02.605Z,42.17
2022-08-07T23:48:36.097Z,42.41
2022-08-07T23:52:53.488Z,42.41
2022-08-07T23:53:59.676Z,42.21
2022-08-07T23:56:53.627Z,41.65
